createdAt,value
2023-05-06T00:00:53.138Z,54.16
2023-05-06T00:01:54.827Z,54.21
2023-05-06T00:02:56.650Z,54.30
2023-05-06T00:03:58.623Z,54.37
2023-05-06T00:05:00.618Z,54.42
2023-05-06T00:06:02.412Z,54.46
2023-05-06T00:07:04.213Z,54.48
2023-05-06T00:08:06.014Z,54.56
2023-05-06T00:09:07.803Z,54.62
2023-05-06T00:10:10.473Z,54.64
2023-05-06T00:11:12.263Z,54.69
2023-05-06T00:12:14.055Z,54.72
2023-05-06T00:13:15.916Z,54.75
2023-05-06T00:14:17.756Z,54.79
2023-05-06T00:15:19.603Z,54.89
2023-05-06T00:16:21.431Z,54.90
2023-05-06T00:17:23.168Z,54.88
2023-05-06T00:18:24.958Z,54.91
2023-05-06T00:19:26.764Z,54.99
2023-05-06T00:20:28.612Z,55.08
2023-05-06T00:21:30.419Z,55.15
2023-05-06T00:22:32.195Z,55.22
2023-05-06T00:23:33.908Z,55.35
2023-05-06T00:24:35.694Z,55.31
2023-05-06T00:25:37.422Z,55.39
2023-05-06T00:26:39.328Z,55.39
2023-05-06T00:27:41.122Z,55.34
2023-05-06T00:28:42.927Z,55.26
2023-05-06T00:29:47.340Z,55.25
2023-05-06T00:30:50.985Z,55.28
2023-05-06T00:31:52.821Z,55.29
2023-05-06T00:32:54.756Z,55.26
2023-05-06T00:33:56.585Z,55.34
2023-05-06T00:34:58.368Z,55.31
2023-05-06T00:36:00.210Z,55.33
2023-05-06T00:37:02.018Z,55.29
2023-05-06T00:38:03.817Z,55.15
2023-05-06T00:39:05.627Z,55.14
2023-05-06T00:40:07.815Z,55.22
2023-05-06T00:41:09.661Z,55.30
2023-05-06T00:42:11.464Z,55.31
2023-05-06T00:43:13.256Z,55.39
2023-05-06T00:44:15.059Z,55.48
2023-05-06T00:45:16.856Z,55.54
2023-05-06T00:46:18.852Z,55.49
2023-05-06T00:47:20.789Z,55.42
2023-05-06T00:48:22.590Z,55.42
2023-05-06T00:49:24.393Z,55.48
2023-05-06T00:50:26.204Z,55.44
2023-05-06T00:51:28.053Z,55.42
2023-05-06T00:52:29.851Z,55.31
2023-05-06T00:53:31.750Z,55.24
2023-05-06T00:54:33.559Z,55.25
2023-05-06T00:55:35.374Z,55.34
2023-05-06T00:56:37.202Z,55.44
2023-05-06T00:57:39.003Z,55.41
2023-05-06T00:58:40.911Z,55.43
2023-05-06T00:59:42.707Z,55.57
2023-05-06T01:00:44.644Z,55.72
2023-05-06T01:01:46.538Z,55.87
2023-05-06T01:02:48.607Z,55.82
2023-05-06T01:03:50.515Z,55.82
2023-05-06T01:04:52.488Z,56.03
2023-05-06T01:05:54.374Z,55.97
2023-05-06T01:06:56.314Z,56.00
2023-05-06T01:07:58.120Z,56.03
2023-05-06T01:08:59.898Z,55.95
2023-05-06T01:10:01.713Z,56.03
2023-05-06T01:11:03.528Z,56.08
2023-05-06T01:12:05.363Z,56.11
2023-05-06T01:13:07.192Z,56.06
2023-05-06T01:14:09.076Z,56.02
2023-05-06T01:15:10.988Z,55.98
2023-05-06T01:16:13.176Z,56.06
2023-05-06T01:17:15.142Z,56.07
2023-05-06T01:18:17.055Z,56.08
2023-05-06T01:19:18.832Z,56.14
2023-05-06T01:20:20.634Z,56.11
2023-05-06T01:21:22.441Z,56.09
2023-05-06T01:22:24.279Z,56.09
2023-05-06T01:23:25.974Z,56.06
2023-05-06T01:24:27.768Z,56.03
2023-05-06T01:25:29.475Z,56.04
2023-05-06T01:26:31.284Z,56.08
2023-05-06T01:27:33.140Z,56.01
2023-05-06T01:28:34.924Z,56.02
2023-05-06T01:29:36.732Z,56.01
2023-05-06T01:30:38.512Z,56.00
2023-05-06T01:31:40.404Z,56.08
2023-05-06T01:32:42.368Z,56.13
2023-05-06T01:33:44.281Z,56.12
2023-05-06T01:34:46.065Z,56.09
2023-05-06T01:35:47.892Z,56.21
2023-05-06T01:36:49.691Z,56.17
2023-05-06T01:37:51.524Z,56.12
2023-05-06T01:38:53.312Z,56.08
2023-05-06T01:39:55.111Z,56.13
2023-05-06T01:40:56.920Z,56.15
2023-05-06T01:41:58.737Z,56.24
2023-05-06T01:43:00.566Z,56.34
2023-05-06T01:44:02.342Z,56.44
2023-05-06T01:45:04.148Z,56.46
2023-05-06T01:46:06.221Z,56.32
2023-05-06T01:47:08.151Z,56.35
2023-05-06T01:48:09.979Z,56.27
2023-05-06T01:49:11.789Z,56.17
2023-05-06T01:50:13.703Z,56.24
2023-05-06T01:51:15.521Z,56.29
2023-05-06T01:52:17.301Z,56.23
2023-05-06T01:53:19.147Z,56.18
2023-05-06T01:54:20.960Z,56.16
2023-05-06T01:55:22.749Z,56.16
2023-05-06T01:56:24.644Z,56.18
2023-05-06T01:57:26.460Z,56.05
2023-05-06T01:58:28.286Z,56.03
2023-05-06T01:59:30.094Z,55.97
2023-05-06T02:00:32.300Z,55.94
2023-05-06T02:01:34.133Z,55.77
2023-05-06T02:02:35.963Z,55.78
2023-05-06T02:03:37.958Z,55.91
2023-05-06T02:04:39.940Z,56.00
2023-05-06T02:05:41.733Z,56.09
2023-05-06T02:06:43.531Z,56.05
2023-05-06T02:07:45.321Z,55.99
2023-05-06T02:08:47.172Z,56.03
2023-05-06T02:09:48.981Z,56.03
2023-05-06T02:10:50.877Z,56.00
2023-05-06T02:11:52.690Z,55.88
2023-05-06T02:12:54.565Z,55.78
2023-05-06T02:13:56.429Z,55.73
2023-05-06T02:14:58.233Z,55.66
2023-05-06T02:16:00.063Z,55.59
2023-05-06T02:17:01.941Z,55.46
2023-05-06T02:18:03.872Z,55.39
2023-05-06T02:19:05.802Z,55.29
2023-05-06T02:20:07.685Z,55.14
2023-05-06T02:21:09.494Z,55.09
2023-05-06T02:22:11.283Z,54.99
2023-05-06T02:23:13.101Z,54.94
2023-05-06T02:24:14.931Z,55.06
2023-05-06T02:25:16.736Z,55.24
2023-05-06T02:26:18.746Z,55.39
2023-05-06T02:27:20.536Z,55.35
2023-05-06T02:28:22.315Z,55.47
2023-05-06T02:29:24.164Z,55.59
2023-05-06T02:30:25.970Z,55.68
2023-05-06T02:31:27.804Z,55.64
2023-05-06T02:32:29.632Z,55.65
2023-05-06T02:33:31.568Z,55.71
2023-05-06T02:34:33.456Z,55.76
2023-05-06T02:35:35.219Z,55.86
2023-05-06T02:36:37.018Z,55.92
2023-05-06T02:37:38.817Z,55.94
2023-05-06T02:38:40.626Z,55.86
2023-05-06T02:39:42.470Z,55.76
2023-05-06T02:40:44.271Z,55.74
2023-05-06T02:41:46.067Z,55.78
2023-05-06T02:42:47.876Z,55.76
2023-05-06T02:43:49.667Z,55.80
2023-05-06T02:44:51.507Z,55.85
2023-05-06T02:45:53.252Z,55.79
2023-05-06T02:46:55.011Z,55.80
2023-05-06T02:47:56.775Z,55.76
2023-05-06T02:48:58.605Z,55.76
2023-05-06T02:50:00.470Z,55.74
2023-05-06T02:51:02.369Z,55.69
2023-05-06T02:52:04.155Z,55.68
2023-05-06T02:53:05.943Z,55.71
2023-05-06T02:54:07.753Z,55.76
2023-05-06T02:55:09.800Z,55.77
2023-05-06T02:56:11.700Z,55.76
2023-05-06T02:57:13.488Z,55.68
2023-05-06T02:58:15.303Z,55.72
2023-05-06T02:59:17.100Z,55.83
2023-05-06T03:00:18.946Z,55.78
2023-05-06T03:01:20.751Z,55.68
2023-05-06T03:02:22.562Z,55.71
2023-05-06T03:03:24.420Z,55.68
2023-05-06T03:04:26.272Z,55.61
2023-05-06T03:05:28.245Z,55.50
2023-05-06T03:06:30.451Z,55.48
2023-05-06T03:07:32.253Z,55.39
2023-05-06T03:08:34.052Z,55.36
2023-05-06T03:09:35.754Z,55.31
2023-05-06T03:10:37.718Z,55.28
2023-05-06T03:11:39.499Z,55.20
2023-05-06T03:12:41.302Z,55.22
2023-05-06T03:13:43.174Z,55.06
2023-05-06T03:14:45.087Z,54.92
2023-05-06T03:15:46.914Z,54.88
2023-05-06T03:16:48.794Z,54.89
2023-05-06T03:17:50.734Z,54.84
2023-05-06T03:18:52.494Z,54.78
2023-05-06T03:19:54.289Z,54.67
2023-05-06T03:20:56.220Z,54.69
2023-05-06T03:21:58.030Z,54.76
2023-05-06T03:22:59.849Z,54.72
2023-05-06T03:24:01.649Z,54.61
2023-05-06T03:25:03.430Z,54.49
2023-05-06T03:26:05.470Z,54.37
2023-05-06T03:27:07.257Z,54.21
2023-05-06T03:28:09.052Z,54.15
2023-05-06T03:29:10.845Z,54.15
2023-05-06T03:30:12.635Z,54.13
2023-05-06T03:31:14.543Z,54.17
2023-05-06T03:32:16.381Z,54.12
2023-05-06T03:33:18.174Z,53.97
2023-05-06T03:34:19.961Z,53.96
2023-05-06T03:35:21.758Z,53.99
2023-05-06T03:36:23.594Z,54.13
2023-05-06T03:37:25.403Z,54.13
2023-05-06T03:38:27.167Z,54.12
2023-05-06T03:39:28.974Z,54.02
2023-05-06T03:40:30.878Z,53.92
2023-05-06T03:41:32.706Z,53.88
2023-05-06T03:42:34.507Z,53.84
2023-05-06T03:43:36.295Z,53.71
2023-05-06T03:44:38.078Z,53.64
2023-05-06T03:45:39.881Z,53.50
2023-05-06T03:46:41.898Z,53.35
2023-05-06T03:47:43.832Z,53.16
2023-05-06T03:48:45.700Z,53.14
2023-05-06T03:49:47.494Z,53.15
2023-05-06T03:50:49.284Z,53.17
2023-05-06T03:51:51.114Z,53.18
2023-05-06T03:52:52.905Z,53.14
2023-05-06T03:53:55.010Z,53.17
2023-05-06T03:54:56.918Z,53.13
2023-05-06T03:55:58.711Z,53.14
2023-05-06T03:57:00.510Z,53.19
2023-05-06T03:58:02.310Z,53.16
2023-05-06T03:59:04.099Z,53.18
2023-05-06T04:00:06.017Z,53.08
2023-05-06T04:01:07.786Z,53.06
2023-05-06T04:02:09.693Z,53.06
2023-05-06T04:03:11.692Z,53.12
2023-05-06T04:04:13.709Z,53.13
2023-05-06T04:05:15.595Z,53.17
2023-05-06T04:06:17.394Z,53.15
2023-05-06T04:07:19.238Z,53.10
2023-05-06T04:08:21.046Z,53.12
2023-05-06T04:09:22.856Z,53.09
2023-05-06T04:10:24.641Z,53.16
2023-05-06T04:11:28.057Z,53.24
2023-05-06T04:12:30.078Z,53.19
2023-05-06T04:13:31.915Z,53.08
2023-05-06T04:14:34.806Z,53.08
2023-05-06T04:15:36.609Z,53.02
2023-05-06T04:16:38.534Z,53.00
2023-05-06T04:17:40.701Z,53.00
2023-05-06T04:18:42.603Z,52.99
2023-05-06T04:19:44.408Z,53.04
2023-05-06T04:20:46.203Z,53.05
2023-05-06T04:21:48.009Z,53.03
2023-05-06T04:22:49.824Z,53.00
2023-05-06T04:23:51.619Z,52.88
2023-05-06T04:24:53.413Z,52.81
2023-05-06T04:25:55.217Z,52.79
2023-05-06T04:26:57.105Z,52.84
2023-05-06T04:27:58.942Z,52.69
2023-05-06T04:29:00.735Z,52.65
2023-05-06T04:30:02.537Z,52.68
2023-05-06T04:31:04.329Z,52.64
2023-05-06T04:32:06.270Z,52.60
2023-05-06T04:33:08.207Z,52.55
2023-05-06T04:34:10.045Z,52.58
2023-05-06T04:35:12.041Z,52.50
2023-05-06T04:36:14.348Z,52.46
2023-05-06T04:37:16.146Z,52.51
2023-05-06T04:38:17.974Z,52.56
2023-05-06T04:39:19.771Z,52.39
2023-05-06T04:40:21.574Z,52.26
2023-05-06T04:41:23.371Z,52.25
2023-05-06T04:42:25.157Z,52.20
2023-05-06T04:43:26.983Z,52.20
2023-05-06T04:44:28.767Z,52.25
2023-05-06T04:45:30.580Z,52.25
2023-05-06T04:46:32.370Z,52.18
2023-05-06T04:47:34.220Z,52.13
2023-05-06T04:48:36.082Z,52.09
2023-05-06T04:49:37.890Z,52.01
2023-05-06T04:50:39.680Z,52.00
2023-05-06T04:51:42.702Z,51.95
2023-05-06T04:52:44.523Z,51.96
2023-05-06T04:53:46.330Z,52.07
2023-05-06T04:54:48.144Z,52.13
2023-05-06T04:55:49.945Z,52.13
2023-05-06T04:56:52.035Z,52.11
2023-05-06T04:57:53.845Z,52.05
2023-05-06T04:58:55.930Z,51.97
2023-05-06T04:59:57.728Z,51.92
2023-05-06T05:00:59.632Z,51.89
2023-05-06T05:02:01.493Z,51.85
2023-05-06T05:03:03.476Z,51.91
2023-05-06T05:04:05.348Z,51.85
2023-05-06T05:05:07.322Z,51.74
2023-05-06T05:06:09.282Z,51.74
2023-05-06T05:07:11.088Z,51.74
2023-05-06T05:08:12.882Z,51.69
2023-05-06T05:09:14.727Z,51.71
2023-05-06T05:10:16.626Z,51.65
2023-05-06T05:11:18.451Z,51.66
2023-05-06T05:12:20.228Z,51.66
2023-05-06T05:13:22.064Z,51.79
2023-05-06T05:14:23.895Z,51.88
2023-05-06T05:15:25.707Z,51.90
2023-05-06T05:16:27.653Z,51.90
2023-05-06T05:17:29.516Z,51.90
2023-05-06T05:18:31.415Z,51.89
2023-05-06T05:19:33.342Z,51.82
2023-05-06T05:20:35.148Z,51.86
2023-05-06T05:21:36.942Z,51.92
2023-05-06T05:22:38.749Z,51.90
2023-05-06T05:23:40.541Z,51.88
2023-05-06T05:24:42.381Z,51.94
2023-05-06T05:25:44.186Z,51.88
2023-05-06T05:26:45.999Z,51.82
2023-05-06T05:27:47.798Z,51.69
2023-05-06T05:28:49.599Z,51.71
2023-05-06T05:29:51.447Z,51.73
2023-05-06T05:30:53.443Z,51.78
2023-05-06T05:31:55.178Z,51.73
2023-05-06T05:32:57.043Z,51.53
2023-05-06T05:33:58.976Z,51.54
2023-05-06T05:35:00.825Z,51.48
2023-05-06T05:36:02.627Z,51.54
2023-05-06T05:37:04.419Z,51.42
2023-05-06T05:38:06.260Z,51.44
2023-05-06T05:39:08.012Z,51.47
2023-05-06T05:40:10.367Z,51.57
2023-05-06T05:41:12.175Z,51.68
2023-05-06T05:42:13.980Z,51.48
2023-05-06T05:43:15.796Z,51.44
2023-05-06T05:44:17.679Z,51.32
2023-05-06T05:45:19.507Z,51.31
2023-05-06T05:46:21.383Z,51.25
2023-05-06T05:47:23.256Z,51.32
2023-05-06T05:48:25.024Z,51.29
2023-05-06T05:49:26.832Z,51.24
2023-05-06T05:50:28.634Z,51.26
2023-05-06T05:51:30.414Z,51.33
2023-05-06T05:52:32.235Z,51.37
2023-05-06T05:53:34.023Z,51.29
2023-05-06T05:54:35.821Z,51.11
2023-05-06T05:55:37.676Z,51.07
2023-05-06T05:56:39.590Z,51.10
2023-05-06T05:57:41.374Z,51.22
2023-05-06T05:58:43.178Z,51.33
2023-05-06T05:59:44.986Z,51.35
2023-05-06T06:00:46.819Z,51.29
2023-05-06T06:01:48.627Z,51.23
2023-05-06T06:02:50.488Z,51.22
2023-05-06T06:03:52.532Z,51.14
2023-05-06T06:04:54.599Z,51.06
2023-05-06T06:05:56.392Z,51.07
2023-05-06T06:06:58.272Z,51.01
2023-05-06T06:08:02.232Z,51.02
2023-05-06T06:09:03.794Z,50.98
2023-05-06T06:10:05.688Z,50.80
2023-05-06T06:11:07.528Z,50.70
2023-05-06T06:12:09.342Z,50.62
2023-05-06T06:13:11.178Z,50.53
2023-05-06T06:14:12.869Z,50.50
2023-05-06T06:15:14.649Z,50.50
2023-05-06T06:16:16.675Z,50.44
2023-05-06T06:17:18.946Z,50.51
2023-05-06T06:18:20.728Z,50.41
2023-05-06T06:19:22.586Z,50.43
2023-05-06T06:20:24.392Z,50.26
2023-05-06T06:21:26.225Z,50.13
2023-05-06T06:22:28.021Z,50.09
2023-05-06T06:23:29.828Z,50.12
2023-05-06T06:24:31.623Z,50.06
2023-05-06T06:25:33.431Z,50.06
2023-05-06T06:26:35.289Z,50.05
2023-05-06T06:27:37.098Z,49.95
2023-05-06T06:28:38.903Z,49.67
2023-05-06T06:29:40.710Z,49.50
2023-05-06T06:30:42.523Z,49.24
2023-05-06T06:31:44.621Z,49.01
2023-05-06T06:32:46.515Z,48.74
2023-05-06T06:33:48.336Z,48.58
2023-05-06T06:34:50.126Z,48.41
2023-05-06T06:35:51.924Z,48.29
2023-05-06T06:36:53.867Z,48.26
2023-05-06T06:37:55.683Z,48.30
2023-05-06T06:38:57.464Z,48.40
2023-05-06T06:39:59.335Z,48.40
2023-05-06T06:41:01.279Z,48.21
2023-05-06T06:42:03.129Z,48.23
2023-05-06T06:43:05.060Z,48.06
2023-05-06T06:44:06.845Z,47.84
2023-05-06T06:45:08.802Z,47.88
2023-05-06T06:46:11.480Z,47.91
2023-05-06T06:47:13.434Z,47.81
2023-05-06T06:48:15.269Z,47.74
2023-05-06T06:49:16.982Z,47.71
2023-05-06T06:50:18.883Z,47.68
2023-05-06T06:51:20.707Z,47.64
2023-05-06T06:52:22.538Z,47.62
2023-05-06T06:53:24.342Z,47.65
2023-05-06T06:54:26.155Z,47.77
2023-05-06T06:55:27.974Z,47.76
2023-05-06T06:56:30.205Z,47.79
2023-05-06T06:57:32.101Z,47.80
2023-05-06T06:58:33.899Z,47.69
2023-05-06T06:59:35.721Z,47.49
2023-05-06T07:00:37.520Z,47.50
2023-05-06T07:01:39.651Z,47.35
2023-05-06T07:02:41.588Z,47.17
2023-05-06T07:03:43.441Z,47.13
2023-05-06T07:04:45.305Z,47.13
2023-05-06T07:05:47.055Z,46.92
2023-05-06T07:06:49.018Z,46.71
2023-05-06T07:07:50.901Z,46.65
2023-05-06T07:08:57.841Z,46.48
2023-05-06T07:09:59.633Z,46.33
2023-05-06T07:11:01.547Z,46.19
2023-05-06T07:12:03.367Z,46.17
2023-05-06T07:13:05.326Z,46.22
2023-05-06T07:14:07.250Z,45.98
2023-05-06T07:15:09.441Z,45.90
2023-05-06T07:16:11.988Z,45.90
2023-05-06T07:17:13.797Z,45.87
2023-05-06T07:18:15.767Z,46.05
2023-05-06T07:19:17.623Z,46.11
2023-05-06T07:20:19.546Z,45.87
2023-05-06T07:21:21.344Z,45.61
2023-05-06T07:22:23.138Z,45.51
2023-05-06T07:23:24.978Z,45.33
2023-05-06T07:24:26.794Z,45.15
2023-05-06T07:25:28.591Z,45.01
2023-05-06T07:26:30.376Z,45.11
2023-05-06T07:27:32.177Z,45.45
2023-05-06T07:28:34.029Z,45.18
2023-05-06T07:29:35.816Z,44.68
2023-05-06T07:30:37.605Z,44.59
2023-05-06T07:31:39.431Z,44.70
2023-05-06T07:32:41.457Z,44.76
2023-05-06T07:33:43.336Z,44.76
2023-05-06T07:34:45.131Z,44.83
2023-05-06T07:35:46.929Z,44.69
2023-05-06T07:36:48.834Z,44.59
2023-05-06T07:37:50.619Z,44.36
2023-05-06T07:38:52.423Z,43.95
2023-05-06T07:39:54.219Z,43.52
2023-05-06T07:40:56.018Z,43.54
2023-05-06T07:41:58.013Z,43.36
2023-05-06T07:42:59.793Z,43.04
2023-05-06T07:44:01.628Z,42.79
2023-05-06T07:45:03.439Z,42.40
2023-05-06T07:46:05.423Z,42.20
2023-05-06T07:47:07.345Z,41.96
2023-05-06T07:48:09.223Z,41.67
2023-05-06T07:49:11.152Z,41.62
2023-05-06T07:50:12.974Z,41.65
2023-05-06T07:51:14.757Z,41.66
2023-05-06T07:52:16.556Z,41.64
2023-05-06T07:53:18.259Z,41.54
2023-05-06T07:54:20.111Z,41.49
2023-05-06T07:55:21.886Z,41.66
2023-05-06T07:56:23.685Z,41.68
2023-05-06T07:57:25.483Z,41.62
2023-05-06T07:58:27.312Z,41.40
2023-05-06T07:59:29.156Z,41.30
2023-05-06T08:00:30.949Z,41.35
2023-05-06T08:01:32.754Z,41.35
2023-05-06T08:02:34.650Z,41.65
2023-05-06T08:03:36.654Z,41.79
2023-05-06T08:04:38.685Z,41.70
2023-05-06T08:05:40.573Z,41.28
2023-05-06T08:06:42.377Z,40.52
2023-05-06T08:07:44.185Z,40.26
2023-05-06T08:08:45.981Z,40.28
2023-05-06T08:09:47.844Z,40.36
2023-05-06T08:10:49.631Z,40.46
2023-05-06T08:11:51.436Z,40.21
2023-05-06T08:12:53.281Z,39.95
2023-05-06T08:13:55.134Z,39.58
2023-05-06T08:14:56.972Z,39.25
2023-05-06T08:15:58.852Z,39.29
2023-05-06T08:17:00.665Z,39.29
2023-05-06T08:18:13.690Z,39.07
2023-05-06T08:20:27.330Z,39.02
2023-05-06T08:21:29.121Z,39.22
2023-05-06T08:22:30.913Z,39.13
2023-05-06T08:23:32.894Z,39.03
2023-05-06T08:24:34.687Z,39.03
2023-05-06T08:25:36.511Z,39.08
2023-05-06T08:26:38.301Z,39.00
2023-05-06T08:27:40.090Z,39.08
2023-05-06T08:28:41.896Z,39.25
2023-05-06T08:29:43.703Z,39.32
2023-05-06T08:30:45.581Z,39.34
2023-05-06T08:31:47.425Z,39.05
2023-05-06T08:32:49.347Z,38.80
2023-05-06T08:33:53.137Z,38.81
2023-05-06T08:34:54.784Z,38.91
2023-05-06T08:35:56.608Z,39.17
2023-05-06T08:36:58.583Z,39.27
2023-05-06T08:38:00.386Z,39.36
2023-05-06T08:39:02.182Z,39.27
2023-05-06T08:40:04.181Z,39.13
2023-05-06T08:41:06.005Z,38.97
2023-05-06T08:42:07.900Z,38.90
2023-05-06T08:43:09.696Z,38.95
2023-05-06T08:44:11.486Z,38.55
2023-05-06T08:45:13.284Z,38.29
2023-05-06T08:46:15.875Z,38.29
2023-05-06T08:47:17.817Z,38.44
2023-05-06T08:48:19.612Z,38.56
2023-05-06T08:49:21.402Z,38.58
2023-05-06T08:50:23.305Z,38.35
2023-05-06T08:51:26.069Z,38.12
2023-05-06T08:52:27.981Z,37.32
2023-05-06T08:53:29.747Z,36.90
2023-05-06T08:54:31.561Z,36.79
2023-05-06T08:55:33.421Z,36.79
2023-05-06T08:56:35.231Z,36.83
2023-05-06T08:57:37.042Z,36.81
2023-05-06T08:58:38.829Z,36.89
2023-05-06T08:59:41.881Z,36.87
2023-05-06T09:00:43.713Z,36.81
2023-05-06T09:01:45.576Z,36.60
2023-05-06T09:02:47.498Z,36.75
2023-05-06T09:03:49.456Z,37.00
2023-05-06T09:04:51.432Z,37.00
2023-05-06T09:05:53.197Z,37.14
2023-05-06T09:06:55.201Z,37.22
2023-05-06T09:07:56.988Z,37.23
2023-05-06T09:08:58.776Z,37.01
2023-05-06T09:10:00.582Z,36.78
2023-05-06T09:11:02.686Z,36.62
2023-05-06T09:12:04.525Z,36.28
2023-05-06T09:13:06.367Z,35.78
2023-05-06T09:14:08.315Z,35.61
2023-05-06T09:15:10.274Z,35.37
2023-05-06T09:16:12.763Z,35.23
2023-05-06T09:17:14.742Z,35.45
2023-05-06T09:18:16.561Z,35.14
2023-05-06T09:19:18.364Z,35.14
2023-05-06T09:20:20.454Z,34.80
2023-05-06T09:21:22.249Z,34.34
2023-05-06T09:22:24.093Z,34.04
2023-05-06T09:23:25.881Z,33.71
2023-05-06T09:24:27.707Z,33.29
2023-05-06T09:25:29.478Z,33.37
2023-05-06T09:26:31.274Z,33.49
2023-05-06T09:27:33.191Z,33.28
2023-05-06T09:28:35.012Z,33.21
2023-05-06T09:29:36.851Z,33.22
2023-05-06T09:30:38.646Z,33.31
2023-05-06T09:31:40.430Z,33.46
2023-05-06T09:32:42.217Z,33.69
2023-05-06T09:33:44.069Z,33.81
2023-05-06T09:34:45.861Z,33.73
2023-05-06T09:35:47.668Z,33.42
2023-05-06T09:36:49.471Z,33.33
2023-05-06T09:37:51.316Z,33.35
2023-05-06T09:38:53.119Z,33.10
2023-05-06T09:39:54.912Z,33.11
2023-05-06T09:40:56.706Z,33.16
2023-05-06T09:41:58.505Z,33.38
2023-05-06T09:43:00.345Z,33.57
2023-05-06T09:44:02.157Z,33.55
2023-05-06T09:45:03.974Z,33.36
2023-05-06T09:46:05.907Z,33.48
2023-05-06T09:47:07.777Z,33.46
2023-05-06T09:48:09.759Z,33.35
2023-05-06T09:49:11.724Z,33.33
2023-05-06T09:50:13.939Z,32.67
2023-05-06T09:51:15.735Z,32.42
2023-05-06T09:52:17.534Z,32.49
2023-05-06T09:53:19.382Z,32.39
2023-05-06T09:54:21.185Z,32.33
2023-05-06T09:55:22.984Z,32.42
2023-05-06T09:56:24.996Z,32.24
2023-05-06T09:57:26.685Z,32.38
2023-05-06T09:58:28.529Z,32.12
2023-05-06T09:59:30.327Z,31.75
2023-05-06T10:00:32.229Z,31.73
2023-05-06T10:01:37.335Z,31.69
2023-05-06T10:02:37.862Z,31.15
2023-05-06T10:03:39.987Z,30.95
2023-05-06T10:04:42.464Z,30.94
2023-05-06T10:05:44.473Z,30.87
2023-05-06T10:06:46.395Z,30.82
2023-05-06T10:07:48.194Z,30.76
2023-05-06T10:08:50.053Z,30.98
2023-05-06T10:09:51.849Z,30.86
2023-05-06T10:10:53.640Z,30.97
2023-05-06T10:11:55.439Z,30.93
2023-05-06T10:12:57.283Z,30.80
2023-05-06T10:13:59.093Z,30.82
2023-05-06T10:15:00.896Z,30.67
2023-05-06T10:16:02.775Z,30.67
2023-05-06T10:17:04.610Z,30.65
2023-05-06T10:18:06.477Z,30.80
2023-05-06T10:19:08.450Z,30.70
2023-05-06T10:20:11.101Z,30.66
2023-05-06T10:21:12.904Z,30.34
2023-05-06T10:22:14.712Z,30.17
2023-05-06T10:23:16.397Z,30.15
2023-05-06T10:24:18.226Z,30.14
2023-05-06T10:25:19.941Z,30.17
2023-05-06T10:26:21.749Z,30.14
2023-05-06T10:27:23.545Z,30.08
2023-05-06T10:28:30.594Z,30.16
2023-05-06T10:29:29.083Z,29.84
2023-05-06T10:30:30.888Z,29.69
2023-05-06T10:31:32.725Z,29.92
2023-05-06T10:32:34.609Z,30.05
2023-05-06T10:33:36.497Z,30.03
2023-05-06T10:34:38.349Z,29.84
2023-05-06T10:35:40.199Z,29.77
2023-05-06T10:36:42.094Z,29.87
2023-05-06T10:37:43.890Z,29.69
2023-05-06T10:38:45.707Z,29.35
2023-05-06T10:39:47.536Z,29.15
2023-05-06T10:40:49.550Z,29.22
2023-05-06T10:41:51.342Z,29.21
2023-05-06T10:42:53.138Z,29.14
2023-05-06T10:43:54.949Z,29.27
2023-05-06T10:44:56.699Z,29.26
2023-05-06T10:45:58.546Z,29.26
2023-05-06T10:47:00.569Z,29.17
2023-05-06T10:48:02.477Z,29.13
2023-05-06T10:49:04.442Z,28.99
2023-05-06T10:50:06.406Z,28.83
2023-05-06T10:51:08.205Z,28.83
2023-05-06T10:52:10.001Z,28.72
2023-05-06T10:53:11.839Z,28.83
2023-05-06T10:54:13.648Z,29.01
2023-05-06T10:55:15.489Z,29.18
2023-05-06T10:56:17.499Z,29.06
2023-05-06T10:57:19.313Z,28.99
2023-05-06T10:58:21.103Z,28.87
2023-05-06T10:59:22.935Z,28.92
2023-05-06T11:00:24.782Z,28.87
2023-05-06T11:01:26.682Z,28.87
2023-05-06T11:02:28.634Z,28.75
2023-05-06T11:03:30.632Z,28.71
2023-05-06T11:04:32.594Z,28.79
2023-05-06T11:05:34.448Z,28.86
2023-05-06T11:06:36.371Z,28.61
2023-05-06T11:07:38.153Z,28.68
2023-05-06T11:08:39.952Z,28.82
2023-05-06T11:09:41.751Z,29.09
2023-05-06T11:10:43.730Z,29.12
2023-05-06T11:11:45.528Z,29.17
2023-05-06T11:12:47.448Z,29.05
2023-05-06T11:13:50.599Z,28.96
2023-05-06T11:14:53.028Z,29.11
2023-05-06T11:15:54.881Z,28.99
2023-05-06T11:16:56.743Z,29.04
2023-05-06T11:17:58.725Z,29.05
2023-05-06T11:19:00.683Z,29.24
2023-05-06T11:20:02.586Z,28.96
2023-05-06T11:21:04.490Z,28.91
2023-05-06T11:22:06.271Z,28.90
2023-05-06T11:23:08.072Z,28.58
2023-05-06T11:24:09.884Z,28.47
2023-05-06T11:25:12.831Z,28.14
2023-05-06T11:26:14.929Z,28.26
2023-05-06T11:27:16.730Z,28.24
2023-05-06T11:28:18.541Z,28.46
2023-05-06T11:29:20.347Z,28.25
2023-05-06T11:30:22.127Z,28.15
2023-05-06T11:31:24.006Z,28.17
2023-05-06T11:32:25.847Z,28.28
2023-05-06T11:33:27.744Z,28.16
2023-05-06T11:34:29.549Z,28.32
2023-05-06T11:35:31.319Z,28.34
2023-05-06T11:36:33.370Z,28.43
2023-05-06T11:37:35.276Z,28.66
2023-05-06T11:38:37.103Z,28.40
2023-05-06T11:39:40.782Z,28.26
2023-05-06T11:40:42.840Z,28.39
2023-05-06T11:41:44.725Z,28.38
2023-05-06T11:42:46.528Z,28.29
2023-05-06T11:43:48.324Z,28.19
2023-05-06T11:44:50.153Z,27.98
2023-05-06T11:45:52.018Z,28.12
2023-05-06T11:46:53.980Z,28.02
2023-05-06T11:47:55.797Z,28.02
2023-05-06T11:48:57.698Z,28.09
2023-05-06T11:49:59.506Z,28.21
2023-05-06T11:51:01.395Z,27.98
2023-05-06T11:52:03.241Z,27.99
2023-05-06T11:53:05.035Z,28.14
2023-05-06T11:54:06.859Z,28.20
2023-05-06T11:55:08.653Z,27.93
2023-05-06T11:56:11.448Z,27.87
2023-05-06T11:57:13.287Z,28.01
2023-05-06T11:58:15.098Z,28.08
2023-05-06T11:59:16.908Z,28.17
2023-05-06T12:00:18.811Z,28.16
2023-05-06T12:01:20.616Z,28.12
2023-05-06T12:02:22.558Z,27.98
2023-05-06T12:03:24.503Z,27.84
2023-05-06T12:04:26.494Z,27.82
2023-05-06T12:05:28.286Z,27.74
2023-05-06T12:06:30.201Z,27.68
2023-05-06T12:07:32.033Z,27.77
2023-05-06T12:08:33.865Z,27.79
2023-05-06T12:09:35.643Z,27.83
2023-05-06T12:10:37.455Z,27.94
2023-05-06T12:11:39.264Z,27.80
2023-05-06T12:12:41.118Z,27.77
2023-05-06T12:13:43.310Z,27.68
2023-05-06T12:14:45.115Z,27.60
2023-05-06T12:15:46.962Z,27.67
2023-05-06T12:16:48.971Z,27.52
2023-05-06T12:17:51.258Z,27.41
2023-05-06T12:18:53.041Z,27.42
2023-05-06T12:19:54.848Z,27.44
2023-05-06T12:20:56.749Z,27.39
2023-05-06T12:21:58.551Z,27.48
2023-05-06T12:23:00.368Z,27.47
2023-05-06T12:24:02.188Z,27.44
2023-05-06T12:25:03.966Z,27.42
2023-05-06T12:26:06.079Z,27.54
2023-05-06T12:27:07.902Z,27.44
2023-05-06T12:28:09.721Z,27.71
2023-05-06T12:29:11.535Z,27.50
2023-05-06T12:30:13.544Z,27.48
2023-05-06T12:31:15.638Z,27.57
2023-05-06T12:32:17.541Z,27.59
2023-05-06T12:33:21.224Z,27.49
2023-05-06T12:34:23.020Z,27.30
2023-05-06T12:35:24.844Z,27.17
2023-05-06T12:36:26.689Z,27.31
2023-05-06T12:37:28.560Z,27.48
2023-05-06T12:38:30.697Z,27.66
2023-05-06T12:39:33.519Z,27.59
2023-05-06T12:40:35.362Z,27.76
2023-05-06T12:41:37.319Z,27.59
2023-05-06T12:42:39.370Z,27.66
2023-05-06T12:43:43.353Z,27.81
2023-05-06T12:44:45.231Z,27.76
2023-05-06T12:45:47.153Z,27.60
2023-05-06T12:46:50.860Z,27.61
2023-05-06T12:47:52.901Z,27.48
2023-05-06T12:48:54.921Z,27.68
2023-05-06T12:49:56.872Z,27.83
2023-05-06T12:50:58.739Z,27.76
2023-05-06T12:52:00.647Z,27.71
2023-05-06T12:53:02.758Z,27.62
2023-05-06T12:54:04.685Z,27.50
2023-05-06T12:55:06.568Z,27.49
2023-05-06T12:56:08.571Z,27.57
2023-05-06T12:57:12.070Z,27.48
2023-05-06T12:58:16.320Z,27.68
2023-05-06T12:59:22.076Z,27.77
2023-05-06T13:00:24.480Z,27.96
2023-05-06T13:01:29.866Z,27.66
2023-05-06T13:02:33.420Z,27.57
2023-05-06T13:03:38.021Z,27.74
2023-05-06T13:04:39.129Z,27.79
2023-05-06T13:05:41.097Z,27.65
2023-05-06T13:06:42.868Z,27.66
2023-05-06T13:07:44.721Z,27.60
2023-05-06T13:08:46.558Z,27.69
2023-05-06T13:09:48.290Z,27.67
2023-05-06T13:10:50.202Z,27.79
2023-05-06T13:11:52.020Z,27.87
2023-05-06T13:12:53.927Z,27.95
2023-05-06T13:13:55.767Z,28.13
2023-05-06T13:14:57.611Z,28.12
2023-05-06T13:15:59.426Z,27.99
2023-05-06T13:17:01.520Z,28.03
2023-05-06T13:18:03.579Z,28.05
2023-05-06T13:19:05.530Z,27.95